createdAt,value
2018-09-13T00:00:40.948Z,18.97
2018-09-13T00:03:11.036Z,18.99
2018-09-13T00:05:40.488Z,18.98
2018-09-13T00:08:09.567Z,18.99
2018-09-13T00:10:38.600Z,18.99
2018-09-13T00:13:08.019Z,18.98
2018-09-13T00:15:38.102Z,18.97
2018-09-13T00:18:08.735Z,18.96
2018-09-13T00:20:38.464Z,18.93
2018-09-13T00:23:09.211Z,18.90
2018-09-13T00:25:38.460Z,18.90
2018-09-13T00:28:08.150Z,18.92
2018-09-13T00:30:37.095Z,18.93
2018-09-13T00:33:07.088Z,18.91
2018-09-13T00:35:37.045Z,18.87
2018-09-13T00:38:06.071Z,18.85
2018-09-13T00:40:35.781Z,18.83
2018-09-13T00:43:04.780Z,18.79
2018-09-13T00:45:33.601Z,18.77
2018-09-13T00:48:02.624Z,18.72
2018-09-13T00:50:32.298Z,18.75
2018-09-13T00:53:02.116Z,18.71
2018-09-13T00:55:32.045Z,18.69
2018-09-13T00:58:01.826Z,18.68
2018-09-13T01:00:31.738Z,18.68
2018-09-13T01:03:01.966Z,18.64
2018-09-13T01:05:32.035Z,18.59
2018-09-13T01:08:03.130Z,18.58
2018-09-13T01:10:33.050Z,18.56
2018-09-13T01:13:03.148Z,18.55
2018-09-13T01:15:32.799Z,18.59
2018-09-13T01:18:02.121Z,18.57
2018-09-13T01:20:31.815Z,18.53
2018-09-13T01:23:01.202Z,18.47
2018-09-13T01:25:31.619Z,18.45
2018-09-13T01:28:00.901Z,18.42
2018-09-13T01:30:30.140Z,18.39
2018-09-13T01:32:59.109Z,18.39
2018-09-13T01:35:28.901Z,18.36
2018-09-13T01:37:59.097Z,18.34
2018-09-13T01:40:29.390Z,18.30
2018-09-13T01:42:58.856Z,18.29
2018-09-13T01:45:28.814Z,18.26
2018-09-13T01:47:58.000Z,18.24
2018-09-13T01:50:27.231Z,18.25
2018-09-13T01:52:57.322Z,18.27
2018-09-13T01:55:28.008Z,18.27
2018-09-13T01:57:57.452Z,18.28
2018-09-13T02:00:27.708Z,18.28
2018-09-13T02:02:57.644Z,18.27
2018-09-13T02:05:28.027Z,18.27
2018-09-13T02:07:57.863Z,18.26
2018-09-13T02:10:27.066Z,18.27
2018-09-13T02:12:57.277Z,18.31
2018-09-13T02:15:28.060Z,18.24
2018-09-13T02:17:57.544Z,18.21
2018-09-13T02:20:27.221Z,18.19
2018-09-13T02:22:56.390Z,18.18
2018-09-13T02:25:25.607Z,18.19
2018-09-13T02:27:54.683Z,18.20
2018-09-13T02:30:23.628Z,18.17
2018-09-13T02:32:52.408Z,18.12
2018-09-13T02:35:22.101Z,18.12
2018-09-13T02:37:51.064Z,18.14
2018-09-13T02:40:20.886Z,18.10
2018-09-13T02:42:50.569Z,18.06
2018-09-13T02:45:19.626Z,18.06
2018-09-13T02:47:48.824Z,18.06
2018-09-13T02:50:18.125Z,18.05
2018-09-13T02:52:48.209Z,18.06
2018-09-13T02:55:17.698Z,18.04
2018-09-13T02:57:47.048Z,18.06
2018-09-13T03:00:16.358Z,18.08
2018-09-13T03:02:46.176Z,18.03
2018-09-13T03:05:15.878Z,17.99
2018-09-13T03:07:45.763Z,18.06
2018-09-13T03:10:16.108Z,18.01
2018-09-13T03:12:45.137Z,18.00
2018-09-13T03:15:15.066Z,18.02
2018-09-13T03:17:44.622Z,18.03
2018-09-13T03:20:14.241Z,17.94
2018-09-13T03:22:43.188Z,17.89
2018-09-13T03:25:12.248Z,17.89
2018-09-13T03:27:42.228Z,17.88
2018-09-13T03:30:12.285Z,17.95
2018-09-13T03:32:42.246Z,17.90
2018-09-13T03:35:12.052Z,17.81
2018-09-13T03:37:42.331Z,17.76
2018-09-13T03:40:11.346Z,17.81
2018-09-13T03:42:40.653Z,17.79
2018-09-13T03:45:10.211Z,17.77
2018-09-13T03:47:39.638Z,17.81
2018-09-13T03:50:09.037Z,17.77
2018-09-13T03:52:37.995Z,17.69
2018-09-13T03:55:07.781Z,17.64
2018-09-13T03:57:38.472Z,17.53
2018-09-13T04:00:08.348Z,17.48
2018-09-13T04:02:38.512Z,17.50
2018-09-13T04:05:07.917Z,17.46
2018-09-13T04:07:38.038Z,17.46
2018-09-13T04:10:07.214Z,17.45
2018-09-13T04:12:37.165Z,17.46
2018-09-13T04:15:07.190Z,17.40
2018-09-13T04:17:36.598Z,17.40
2018-09-13T04:20:06.315Z,17.43
2018-09-13T04:22:36.500Z,17.44
2018-09-13T04:25:07.252Z,17.36
2018-09-13T04:27:36.555Z,17.36
2018-09-13T04:30:06.070Z,17.30
2018-09-13T04:32:35.733Z,17.31
2018-09-13T04:35:05.258Z,17.29
2018-09-13T04:37:35.503Z,17.29
2018-09-13T04:40:04.712Z,17.32
2018-09-13T04:42:34.849Z,17.28
2018-09-13T04:45:04.170Z,17.28
2018-09-13T04:47:33.205Z,17.31
2018-09-13T04:50:03.758Z,17.25
2018-09-13T04:52:33.448Z,17.24
2018-09-13T04:55:02.583Z,17.23
2018-09-13T04:57:32.485Z,17.19
2018-09-13T05:00:02.571Z,17.21
2018-09-13T05:02:31.857Z,17.18
2018-09-13T05:05:01.273Z,17.17
2018-09-13T05:07:31.580Z,17.19
2018-09-13T05:10:01.218Z,17.16
2018-09-13T05:12:30.300Z,17.10
2018-09-13T05:15:00.756Z,17.11
2018-09-13T05:17:30.303Z,17.08
2018-09-13T05:19:59.286Z,17.10
2018-09-13T05:22:28.318Z,17.14
2018-09-13T05:24:57.925Z,17.12
2018-09-13T05:27:27.290Z,17.11
2018-09-13T05:29:56.558Z,17.12
2018-09-13T05:32:27.811Z,17.15
2018-09-13T05:34:57.796Z,17.14
2018-09-13T05:37:27.387Z,17.17
2018-09-13T05:39:57.798Z,17.19
2018-09-13T05:42:27.088Z,17.16
2018-09-13T05:44:56.153Z,17.18
2018-09-13T05:47:25.389Z,17.08
2018-09-13T05:49:54.560Z,17.01
2018-09-13T05:52:24.930Z,16.96
2018-09-13T05:54:53.751Z,16.94
2018-09-13T05:57:22.752Z,16.93
2018-09-13T05:59:51.672Z,16.96
2018-09-13T06:02:20.451Z,16.93
2018-09-13T06:04:49.846Z,16.90
2018-09-13T06:07:19.108Z,16.90
2018-09-13T06:09:48.115Z,16.87
2018-09-13T06:12:17.492Z,16.88
2018-09-13T06:14:47.840Z,16.90
2018-09-13T06:17:17.308Z,16.92
2018-09-13T06:19:46.828Z,16.99
2018-09-13T06:22:15.921Z,16.99
2018-09-13T06:24:46.186Z,17.03
2018-09-13T06:27:15.855Z,17.05
2018-09-13T06:29:44.839Z,17.06
2018-09-13T06:32:14.109Z,16.99
2018-09-13T06:34:43.483Z,17.00
2018-09-13T06:37:13.734Z,17.04
2018-09-13T06:39:42.930Z,17.08
2018-09-13T06:42:12.063Z,17.04
2018-09-13T06:44:41.749Z,17.06
2018-09-13T06:47:11.903Z,17.11
2018-09-13T06:49:42.023Z,17.20
2018-09-13T06:52:11.184Z,17.19
2018-09-13T06:54:40.777Z,17.20
2018-09-13T06:57:11.488Z,17.23
2018-09-13T06:59:41.921Z,17.28
2018-09-13T07:02:12.408Z,17.31
2018-09-13T07:04:42.402Z,17.28
2018-09-13T07:07:11.693Z,17.20
2018-09-13T07:09:41.960Z,17.24
2018-09-13T07:12:11.087Z,17.26
2018-09-13T07:14:40.290Z,17.32
2018-09-13T07:17:10.347Z,17.23
2018-09-13T07:19:40.686Z,17.21
2018-09-13T07:22:10.259Z,17.14
2018-09-13T07:24:40.223Z,17.13
2018-09-13T07:27:09.992Z,17.07
2018-09-13T07:29:39.626Z,17.06
2018-09-13T07:32:09.336Z,17.02
2018-09-13T07:34:38.947Z,17.02
2018-09-13T07:37:08.964Z,16.98
2018-09-13T07:39:38.060Z,17.02
2018-09-13T07:42:07.935Z,16.93
2018-09-13T07:44:37.692Z,16.94
2018-09-13T07:47:08.160Z,16.93
2018-09-13T07:49:38.188Z,16.91
2018-09-13T07:52:08.341Z,16.83
2018-09-13T07:54:38.460Z,16.75
2018-09-13T07:57:08.987Z,16.73
2018-09-13T07:59:38.502Z,16.72
2018-09-13T08:02:07.716Z,16.71
2018-09-13T08:04:37.296Z,16.72
2018-09-13T08:07:07.651Z,16.69
2018-09-13T08:09:37.439Z,16.69
2018-09-13T08:12:06.700Z,16.73
2018-09-13T08:14:37.596Z,16.80
2018-09-13T08:17:07.976Z,16.86
2018-09-13T08:19:38.000Z,16.97
2018-09-13T08:22:07.426Z,17.00
2018-09-13T08:24:37.379Z,17.05
2018-09-13T08:27:07.193Z,17.10
2018-09-13T08:29:36.058Z,17.16
2018-09-13T08:32:06.255Z,17.22
2018-09-13T08:34:35.803Z,17.28
2018-09-13T08:37:04.883Z,17.35
2018-09-13T08:39:34.678Z,17.29
2018-09-13T08:42:04.411Z,17.30
2018-09-13T08:44:34.274Z,17.29
2018-09-13T08:47:04.424Z,17.39
2018-09-13T08:49:33.479Z,17.50
2018-09-13T08:52:03.222Z,17.41
2018-09-13T08:54:32.132Z,17.35
2018-09-13T08:57:01.338Z,17.32
2018-09-13T08:59:31.294Z,17.29
2018-09-13T09:02:00.305Z,17.24
2018-09-13T09:04:30.710Z,17.25
2018-09-13T09:07:01.043Z,17.28
2018-09-13T09:09:31.791Z,17.21
2018-09-13T09:12:01.633Z,17.14
2018-09-13T09:14:30.904Z,17.16
2018-09-13T09:17:00.382Z,17.16
2018-09-13T09:19:30.635Z,17.15
2018-09-13T09:22:00.194Z,17.20
2018-09-13T09:24:29.176Z,17.23
2018-09-13T09:27:00.359Z,17.33
2018-09-13T09:29:30.043Z,17.24
2018-09-13T09:31:59.600Z,17.14
2018-09-13T09:34:29.296Z,17.12
2018-09-13T09:36:58.671Z,17.19
2018-09-13T09:39:27.969Z,17.16
2018-09-13T09:41:58.287Z,17.24
2018-09-13T09:44:27.135Z,17.28
2018-09-13T09:46:56.774Z,17.26
2018-09-13T09:49:27.063Z,17.29
2018-09-13T09:51:57.291Z,17.34
2018-09-13T09:54:26.560Z,17.34
2018-09-13T09:56:56.411Z,17.36
2018-09-13T09:59:25.422Z,17.44
2018-09-13T10:02:00.988Z,17.50
2018-09-13T10:04:30.377Z,17.53
2018-09-13T10:07:05.875Z,17.57
2018-09-13T10:09:35.184Z,17.59
2018-09-13T10:12:04.794Z,17.52
2018-09-13T10:14:33.990Z,17.47
2018-09-13T10:17:08.568Z,17.49
2018-09-13T10:19:43.084Z,17.51
2018-09-13T10:22:18.324Z,17.51
2018-09-13T10:24:52.369Z,17.59
2018-09-13T10:27:26.422Z,17.58
2018-09-13T10:30:00.752Z,17.64
2018-09-13T10:32:35.246Z,17.68
2018-09-13T10:35:09.978Z,17.67
2018-09-13T10:37:44.039Z,17.63
2018-09-13T10:40:18.089Z,17.68
2018-09-13T10:42:52.604Z,17.74
2018-09-13T10:45:27.270Z,17.78
2018-09-13T10:48:02.659Z,17.78
2018-09-13T10:50:43.403Z,17.77
2018-09-13T10:53:16.553Z,17.87
2018-09-13T10:55:46.930Z,17.90
2018-09-13T10:58:17.059Z,17.98
2018-09-13T11:00:52.696Z,17.95
2018-09-13T11:03:23.681Z,17.80
2018-09-13T11:05:54.354Z,17.87
2018-09-13T11:08:23.594Z,17.89
2018-09-13T11:10:53.125Z,17.87
2018-09-13T11:13:32.242Z,17.90
2018-09-13T11:16:01.521Z,18.00
2018-09-13T11:18:30.622Z,18.06
2018-09-13T11:21:01.040Z,18.07
2018-09-13T11:23:31.343Z,18.06
2018-09-13T11:26:00.738Z,18.01
2018-09-13T11:28:30.461Z,17.96
2018-09-13T11:31:02.817Z,18.04
2018-09-13T11:33:33.846Z,17.97
2018-09-13T11:36:03.181Z,17.92
2018-09-13T11:38:32.265Z,17.95
2018-09-13T11:41:01.855Z,17.87
2018-09-13T11:43:31.444Z,17.90
2018-09-13T11:46:01.366Z,17.95
2018-09-13T11:48:31.649Z,17.93
2018-09-13T11:51:00.833Z,18.09
2018-09-13T11:53:30.430Z,18.10
2018-09-13T11:56:00.763Z,18.10
2018-09-13T11:58:31.260Z,18.21
2018-09-13T12:01:00.366Z,18.24
2018-09-13T12:03:31.244Z,18.28
2018-09-13T12:06:00.288Z,18.33
2018-09-13T12:08:29.862Z,18.30
2018-09-13T12:10:59.046Z,18.29
2018-09-13T12:13:28.855Z,18.37
2018-09-13T12:15:58.065Z,18.40
2018-09-13T12:18:28.287Z,18.46
2018-09-13T12:20:57.369Z,18.38
2018-09-13T12:23:26.517Z,18.35
2018-09-13T12:25:56.665Z,18.27
2018-09-13T12:28:27.048Z,18.23
2018-09-13T12:30:56.770Z,18.29
2018-09-13T12:33:28.445Z,18.21
2018-09-13T12:35:58.390Z,18.26
2018-09-13T12:38:27.591Z,18.25
2018-09-13T12:40:58.179Z,18.23
2018-09-13T12:43:28.370Z,18.27
2018-09-13T12:45:58.557Z,18.43
2018-09-13T12:48:28.270Z,18.45
2018-09-13T12:50:57.502Z,18.49
2018-09-13T12:53:28.114Z,18.55
2018-09-13T12:55:57.235Z,18.64
2018-09-13T12:58:26.942Z,18.74
2018-09-13T13:00:56.859Z,18.82
2018-09-13T13:03:26.566Z,18.88
2018-09-13T13:05:56.224Z,18.95
2018-09-13T13:08:26.186Z,18.89
2018-09-13T13:10:55.490Z,18.88
2018-09-13T13:13:25.614Z,18.87
2018-09-13T13:15:55.726Z,18.89
2018-09-13T13:18:24.635Z,18.79
2018-09-13T13:20:53.858Z,18.69
2018-09-13T13:23:23.194Z,18.58
2018-09-13T13:25:52.957Z,18.59
2018-09-13T13:28:22.962Z,18.54
2018-09-13T13:30:52.190Z,18.49
2018-09-13T13:33:21.250Z,18.48
2018-09-13T13:35:51.031Z,18.49
2018-09-13T13:38:20.886Z,18.45
2018-09-13T13:40:50.695Z,18.45
2018-09-13T13:43:19.616Z,18.41
2018-09-13T13:45:48.942Z,18.36
2018-09-13T13:48:17.970Z,18.37
2018-09-13T13:50:48.031Z,18.31
2018-09-13T13:53:17.121Z,18.32
2018-09-13T13:55:46.011Z,18.32
2018-09-13T13:58:16.193Z,18.48
2018-09-13T14:00:45.199Z,18.38
2018-09-13T14:03:15.461Z,18.36
2018-09-13T14:05:46.202Z,18.36
2018-09-13T14:08:19.478Z,18.28
2018-09-13T14:10:48.517Z,18.32
2018-09-13T14:13:18.516Z,18.24
2018-09-13T14:15:47.633Z,18.22
2018-09-13T14:18:18.068Z,18.22
2018-09-13T14:20:47.397Z,18.34
2018-09-13T14:23:16.408Z,18.22
2018-09-13T14:25:46.375Z,18.21
2018-09-13T14:28:15.315Z,18.20
2018-09-13T14:30:45.014Z,18.22
2018-09-13T14:33:14.472Z,18.27
2018-09-13T14:35:44.242Z,18.32
2018-09-13T14:38:13.670Z,18.32
2018-09-13T14:40:43.197Z,18.31
2018-09-13T14:43:12.111Z,18.25
2018-09-13T14:45:41.289Z,18.25
2018-09-13T14:48:11.164Z,18.24
2018-09-13T14:50:41.011Z,18.26
2018-09-13T14:53:10.098Z,18.20
2018-09-13T14:55:39.131Z,18.11
2018-09-13T14:58:07.991Z,18.11
2018-09-13T15:00:38.259Z,18.20
2018-09-13T15:03:08.602Z,18.23
2018-09-13T15:05:38.763Z,18.17
2018-09-13T15:08:09.145Z,18.14
2018-09-13T15:10:38.745Z,18.13
2018-09-13T15:13:08.314Z,18.07
2018-09-13T15:15:38.094Z,18.06
2018-09-13T15:18:08.540Z,18.06
2018-09-13T15:20:38.390Z,18.00
2018-09-13T15:23:08.425Z,17.94
2018-09-13T15:25:38.122Z,17.92
2018-09-13T15:28:07.239Z,17.90
2018-09-13T15:30:37.124Z,17.87
2018-09-13T15:33:06.014Z,17.74
2018-09-13T15:35:35.417Z,17.66
2018-09-13T15:38:04.765Z,17.65
2018-09-13T15:40:34.063Z,17.59
2018-09-13T15:43:03.639Z,17.55
2018-09-13T15:45:32.647Z,17.43
2018-09-13T15:48:02.582Z,17.35
2018-09-13T15:50:32.732Z,17.30
2018-09-13T15:53:02.152Z,17.16
2018-09-13T15:55:31.714Z,17.00
2018-09-13T15:58:01.141Z,16.85
2018-09-13T16:00:31.829Z,16.76
2018-09-13T16:03:01.286Z,16.70
2018-09-13T16:05:30.974Z,16.67
2018-09-13T16:08:00.331Z,16.68
2018-09-13T16:10:29.997Z,16.64
2018-09-13T16:13:00.436Z,16.60
2018-09-13T16:15:30.300Z,16.52
2018-09-13T16:18:00.405Z,16.54
2018-09-13T16:20:29.532Z,16.60
2018-09-13T16:22:58.795Z,16.65
2018-09-13T16:25:29.571Z,16.70
2018-09-13T16:27:59.237Z,16.75
2018-09-13T16:30:28.452Z,16.79
2018-09-13T16:32:58.601Z,16.82
2018-09-13T16:35:29.247Z,16.81
2018-09-13T16:38:03.502Z,16.83
2018-09-13T16:40:38.644Z,16.85
2018-09-13T16:43:13.099Z,16.88
2018-09-13T16:45:42.834Z,16.87
2018-09-13T16:48:12.174Z,16.90
2018-09-13T16:50:43.474Z,16.91
2018-09-13T16:53:13.416Z,16.88
2018-09-13T16:55:42.659Z,16.85
2018-09-13T16:58:12.062Z,16.87
2018-09-13T17:00:42.567Z,16.85
2018-09-13T17:03:12.698Z,16.84
2018-09-13T17:05:44.089Z,16.84
2018-09-13T17:08:14.828Z,16.85
2018-09-13T17:10:44.596Z,16.86
2018-09-13T17:13:15.286Z,16.86
2018-09-13T17:15:44.860Z,16.87
2018-09-13T17:18:14.527Z,16.87
2018-09-13T17:20:46.328Z,16.94
2018-09-13T17:23:17.440Z,16.89
2018-09-13T17:25:47.001Z,16.86
2018-09-13T17:28:16.984Z,16.87
2018-09-13T17:30:46.782Z,16.87
2018-09-13T17:33:16.417Z,16.84
2018-09-13T17:35:45.394Z,16.83
2018-09-13T17:38:16.902Z,16.79
2018-09-13T17:40:46.513Z,16.78
2018-09-13T17:43:16.350Z,16.76
2018-09-13T17:45:46.491Z,16.75
2018-09-13T17:48:16.218Z,16.73
2018-09-13T17:50:45.371Z,16.73
2018-09-13T17:53:14.498Z,16.73
2018-09-13T17:55:44.176Z,16.72
2018-09-13T17:58:14.102Z,16.72
2018-09-13T18:00:44.740Z,16.68
2018-09-13T18:03:14.674Z,16.70
2018-09-13T18:05:44.452Z,16.72
2018-09-13T18:08:14.485Z,16.71
2018-09-13T18:10:43.371Z,16.72
2018-09-13T18:13:13.055Z,16.73
2018-09-13T18:15:43.800Z,16.72
2018-09-13T18:18:13.267Z,16.72
2018-09-13T18:20:43.227Z,16.77
2018-09-13T18:23:12.505Z,16.73
2018-09-13T18:25:41.679Z,16.69
2018-09-13T18:28:12.882Z,16.71
2018-09-13T18:30:43.026Z,16.71
2018-09-13T18:33:12.052Z,16.65
2018-09-13T18:35:41.660Z,16.61
2018-09-13T18:38:10.973Z,16.58
2018-09-13T18:40:41.020Z,16.59
2018-09-13T18:43:11.822Z,16.60
2018-09-13T18:45:41.147Z,16.58
2018-09-13T18:48:10.638Z,16.57
2018-09-13T18:50:41.344Z,16.51
2018-09-13T18:53:10.196Z,16.54
2018-09-13T18:55:40.636Z,16.53
2018-09-13T18:58:11.074Z,16.51
2018-09-13T19:00:40.133Z,16.49
2018-09-13T19:03:10.517Z,16.47
2018-09-13T19:05:40.004Z,16.47
2018-09-13T19:08:09.748Z,16.43
2018-09-13T19:10:40.316Z,16.37
2018-09-13T19:13:10.213Z,16.29
2018-09-13T19:15:40.185Z,16.22
2018-09-13T19:18:09.507Z,16.19
2018-09-13T19:20:38.897Z,16.15
2018-09-13T19:23:08.301Z,16.13
2018-09-13T19:25:37.580Z,16.14
2018-09-13T19:28:06.662Z,16.15
2018-09-13T19:30:35.727Z,16.18
2018-09-13T19:33:05.406Z,16.21
2018-09-13T19:35:35.621Z,16.20
2018-09-13T19:38:05.176Z,16.17
2018-09-13T19:40:35.436Z,16.13
2018-09-13T19:43:11.388Z,16.12
2018-09-13T19:45:42.027Z,16.10
2018-09-13T19:48:11.265Z,16.08
2018-09-13T19:50:41.179Z,16.09
2018-09-13T19:53:10.493Z,16.11
2018-09-13T19:55:39.538Z,16.11
2018-09-13T19:58:09.501Z,16.13
2018-09-13T20:00:38.787Z,16.15
2018-09-13T20:03:09.152Z,16.15
2018-09-13T20:05:39.289Z,16.14
2018-09-13T20:08:09.154Z,16.14
2018-09-13T20:10:38.759Z,16.18
2018-09-13T20:13:09.333Z,16.14
2018-09-13T20:15:38.783Z,16.15
2018-09-13T20:18:08.412Z,16.14
2018-09-13T20:20:37.636Z,16.15
2018-09-13T20:23:07.670Z,16.15
2018-09-13T20:25:36.537Z,16.17
2018-09-13T20:28:06.287Z,16.18
2018-09-13T20:30:35.357Z,16.17
2018-09-13T20:33:06.085Z,16.18
2018-09-13T20:35:35.972Z,16.19
2018-09-13T20:38:05.041Z,16.18
2018-09-13T20:40:34.079Z,16.21
2018-09-13T20:43:03.373Z,16.20
2018-09-13T20:45:32.539Z,16.20
2018-09-13T20:48:03.017Z,16.19
2018-09-13T20:50:32.434Z,16.20
2018-09-13T20:53:02.139Z,16.20
2018-09-13T20:55:31.349Z,16.24
2018-09-13T20:58:00.987Z,16.22
2018-09-13T21:00:30.050Z,16.21
2018-09-13T21:03:00.050Z,16.17
2018-09-13T21:05:29.618Z,16.16
2018-09-13T21:07:59.260Z,16.17
2018-09-13T21:10:28.423Z,16.15
2018-09-13T21:12:58.069Z,16.15
2018-09-13T21:15:27.452Z,16.14
2018-09-13T21:17:56.970Z,16.08
2018-09-13T21:20:26.272Z,16.06
2018-09-13T21:22:56.593Z,16.07
2018-09-13T21:25:25.781Z,16.07
2018-09-13T21:27:55.730Z,16.10
2018-09-13T21:30:25.436Z,16.13
2018-09-13T21:32:55.869Z,16.13
2018-09-13T21:35:25.561Z,16.14
2018-09-13T21:37:54.555Z,16.15
2018-09-13T21:40:24.433Z,16.14
2018-09-13T21:42:54.092Z,16.14
2018-09-13T21:45:23.079Z,16.13
2018-09-13T21:47:52.171Z,16.11
2018-09-13T21:50:22.791Z,16.08
2018-09-13T21:52:52.012Z,16.07
2018-09-13T21:55:21.684Z,16.06
2018-09-13T21:57:51.260Z,16.04
2018-09-13T22:00:20.370Z,16.04
2018-09-13T22:02:50.787Z,16.03
2018-09-13T22:05:20.737Z,16.02
2018-09-13T22:07:50.507Z,16.00
2018-09-13T22:10:20.761Z,15.98
2018-09-13T22:12:50.947Z,16.00
2018-09-13T22:15:20.737Z,16.03
2018-09-13T22:17:49.953Z,16.02
2018-09-13T22:20:19.183Z,16.00
2018-09-13T22:22:48.877Z,16.00
2018-09-13T22:25:17.697Z,16.00
2018-09-13T22:27:47.189Z,15.97
2018-09-13T22:30:16.613Z,15.96
2018-09-13T22:32:45.746Z,15.95
2018-09-13T22:35:14.772Z,15.92
2018-09-13T22:37:44.555Z,15.93
2018-09-13T22:40:13.743Z,15.95
2018-09-13T22:42:44.352Z,15.93
2018-09-13T22:45:13.901Z,15.94
2018-09-13T22:47:43.614Z,15.96
2018-09-13T22:50:12.904Z,15.97
2018-09-13T22:52:42.382Z,15.99
2018-09-13T22:55:12.351Z,15.97
2018-09-13T22:57:42.573Z,15.97
2018-09-13T23:00:11.718Z,15.92
2018-09-13T23:02:46.639Z,15.88
2018-09-13T23:05:16.097Z,15.84
2018-09-13T23:07:45.631Z,15.78
2018-09-13T23:10:15.489Z,15.80
2018-09-13T23:12:44.605Z,15.85
2018-09-13T23:15:14.505Z,15.89
2018-09-13T23:17:44.794Z,15.91
2018-09-13T23:20:15.242Z,15.94
2018-09-13T23:22:44.970Z,15.96
2018-09-13T23:25:16.052Z,15.98
2018-09-13T23:27:45.898Z,15.98
2018-09-13T23:30:16.350Z,15.97
2018-09-13T23:32:46.414Z,15.98
2018-09-13T23:35:16.627Z,15.98
2018-09-13T23:37:46.095Z,15.97
2018-09-13T23:40:15.777Z,15.97
2018-09-13T23:42:45.363Z,15.99
2018-09-13T23:45:14.922Z,16.00
2018-09-13T23:47:44.865Z,16.01
2018-09-13T23:50:14.173Z,16.01
2018-09-13T23:52:44.243Z,16.01
2018-09-13T23:55:13.391Z,16.03
2018-09-13T23:57:42.944Z,16.01
